createdAt,value
2019-03-13T20:01:59.536Z,42.70
2019-03-13T20:04:30.500Z,42.80
2019-03-13T20:06:57.675Z,42.93
2019-03-13T20:09:25.878Z,43.04
2019-03-13T20:11:54.100Z,42.99
2019-03-13T20:14:22.653Z,42.92
2019-03-13T20:16:50.870Z,42.73
2019-03-13T20:19:19.411Z,42.85
2019-03-13T20:21:47.632Z,42.72
2019-03-13T20:24:15.843Z,42.69
2019-03-13T20:26:44.053Z,42.43
2019-03-13T20:29:12.612Z,42.70
2019-03-13T20:31:40.830Z,42.88
2019-03-13T20:34:09.034Z,42.91
2019-03-13T20:36:37.254Z,42.43
2019-03-13T20:39:05.816Z,42.54
2019-03-13T20:41:34.043Z,42.76
2019-03-13T20:44:02.239Z,42.67
2019-03-13T20:46:30.461Z,42.74
2019-03-13T20:48:58.673Z,42.69
2019-03-13T20:51:26.884Z,42.51
2019-03-13T20:53:55.166Z,42.67
2019-03-13T20:56:23.381Z,42.29
2019-03-13T20:58:51.578Z,42.42
2019-03-13T21:01:20.096Z,42.38
2019-03-13T21:03:48.303Z,41.97
2019-03-13T21:06:16.505Z,42.28
2019-03-13T21:08:45.006Z,42.42
2019-03-13T21:11:13.511Z,42.50
2019-03-13T21:13:41.991Z,42.61
2019-03-13T21:16:13.091Z,42.42
2019-03-13T21:18:41.311Z,42.46
2019-03-13T21:21:09.516Z,42.65
2019-03-13T21:23:37.723Z,42.48
2019-03-13T21:26:06.240Z,42.12
2019-03-13T21:28:34.453Z,42.34
2019-03-13T21:31:04.169Z,42.24
2019-03-13T21:33:32.389Z,42.36
2019-03-13T21:36:00.621Z,42.31
2019-03-13T21:38:28.808Z,42.23
2019-03-13T21:40:57.003Z,42.35
2019-03-13T21:43:25.246Z,42.41
2019-03-13T21:45:53.445Z,42.32
2019-03-13T21:48:21.949Z,42.36
2019-03-13T21:50:50.626Z,42.25
2019-03-13T21:53:19.240Z,42.28
2019-03-13T21:55:47.445Z,42.30
2019-03-13T21:58:15.996Z,42.27
2019-03-13T22:00:44.246Z,42.26
2019-03-13T22:03:12.561Z,42.17
2019-03-13T22:05:40.755Z,42.15
2019-03-13T22:08:09.159Z,41.97
2019-03-13T22:10:37.754Z,42.20
2019-03-13T22:13:06.456Z,42.00
2019-03-13T22:15:34.640Z,42.03
2019-03-13T22:18:02.853Z,42.13
2019-03-13T22:20:31.064Z,42.05
2019-03-13T22:22:59.571Z,42.05
2019-03-13T22:25:28.068Z,42.06
2019-03-13T22:27:56.539Z,42.00
2019-03-13T22:30:28.656Z,41.96
2019-03-13T22:32:55.309Z,41.92
2019-03-13T22:35:23.514Z,42.03
2019-03-13T22:37:51.710Z,41.84
2019-03-13T22:40:19.983Z,41.95
2019-03-13T22:42:48.185Z,41.88
2019-03-13T22:45:18.700Z,41.87
2019-03-13T22:47:46.993Z,41.82
2019-03-13T22:50:18.444Z,41.74
2019-03-13T22:52:46.643Z,41.78
2019-03-13T22:55:14.868Z,41.82
2019-03-13T22:57:43.166Z,41.79
2019-03-13T23:00:36.197Z,41.79
2019-03-13T23:03:04.750Z,41.72
2019-03-13T23:05:32.951Z,41.68
2019-03-13T23:08:01.150Z,41.66
2019-03-13T23:10:32.942Z,41.69
2019-03-13T23:13:01.167Z,41.73
2019-03-13T23:15:29.354Z,41.44
2019-03-13T23:17:57.892Z,41.60
2019-03-13T23:20:26.092Z,41.69
2019-03-13T23:22:54.289Z,41.63
2019-03-13T23:25:22.482Z,41.63
2019-03-13T23:27:50.682Z,41.66
2019-03-13T23:30:19.172Z,41.67
2019-03-13T23:32:47.374Z,41.25
2019-03-13T23:35:15.574Z,41.46
2019-03-13T23:37:43.775Z,41.56
2019-03-13T23:40:12.012Z,41.70
2019-03-13T23:42:40.178Z,41.69
2019-03-13T23:45:09.636Z,41.86
2019-03-13T23:47:37.907Z,41.71
2019-03-13T23:50:11.331Z,41.68
2019-03-13T23:52:39.536Z,41.71
2019-03-13T23:55:08.275Z,41.71
2019-03-13T23:57:36.471Z,41.68
